• Join FlightAware (Why Join?)
  • Login
  • US Flag GB Flag 
13:25 EST


 

Airport Tracker/Info


-or-


 

Live Flight TrackerFlight Track Log ✈ EJA929 ✈ 01-Mar-2014 ✈ KSDL - KSJC

Flight Track Log - Related Links

Times and Time Zones

All times are in EST time to prevent confusion due to time zone crossing. See the EJA929 flight status page for this flight to view local times or setup timezone preferences in your user account.

Time Position Orientation Groundspeed Altitude Reporting Facility
EST Latitude Longitude Course Direction KTS MPH feet Rate Location/Type
15:53 33.6333 -111.9000 309° West 180 207 2,500  Level Phoenix TRACON
15:54 33.6667 -111.9500 309° West 213 245 5,900 2,160 Climbing Phoenix TRACON
15:55 33.7058 -112.0433 297° West 262 302 8,000 1,740 Climbing Albuquerque Center
15:57 33.7394 -112.1225 297° West 264 304 10,200 2,880 Climbing Albuquerque Center
15:58 33.7989 -112.1767 323° Northwest 286 329 14,000 3,120 Climbing Albuquerque Center
15:59 33.8667 -112.2278 328° Northwest 288 331 16,600 2,580 Climbing Albuquerque Center
16:00 33.9658 -112.2939 331° Northwest 341 392 19,400 2,460 Climbing Albuquerque Center
16:01 34.0592 -112.3528 332° Northwest 374 430 21,700 2,160 Climbing Albuquerque Center
16:02 34.1606 -112.4150 333° Northwest 402 463 23,900 2,160 Climbing Albuquerque Center
16:03 34.2456 -112.5047 319° Northwest 403 464 26,200 2,220 Climbing Albuquerque Center
16:04 34.3078 -112.6189 303° West 404 465 28,500 2,220 Climbing Albuquerque Center
16:05 34.3706 -112.7369 303° West 412 474 30,800 2,220 Climbing Albuquerque Center
16:06 34.4356 -112.8592 303° West 426 490 33,100 1,560 Climbing Albuquerque Center
16:07 34.5117 -112.9986 304° West 444 511 34,000 420 Climbing Albuquerque Center
16:08 34.5839 -113.1367 302° West 472 543 34,000 60 Level Albuquerque Center
16:09 34.6575 -113.2744 303° West 483 556 34,200 840 Climbing Albuquerque Center
16:10 34.7283 -113.4100 302° West 478 550 35,800 1,620 Climbing Albuquerque Center
16:11 34.7992 -113.5433 303° West 472 543 37,600 1,020 Climbing Albuquerque Center
16:12 34.8786 -113.6692 308° West 468 539 38,000 180 Climbing Albuquerque Center
16:13 34.9653 -113.8014 309° West 490 564 38,000  Level Albuquerque Center
16:14 35.0819 -113.9431 315° West 510 587 38,000  Level Los Angeles Center
16:15 35.2053 -114.0364 328° Northwest 522 601 38,000 600 Level Los Angeles Center
16:16 35.3364 -114.1669 321° Northwest 505 581 39,300 960 Climbing Los Angeles Center
16:17 35.4147 -114.2997 306° West 482 555 40,000 300 Climbing Los Angeles Center
16:18 35.4944 -114.4353 306° West 487 560 40,000  Level Los Angeles Center
16:19 35.5736 -114.5725 305° West 491 565 40,000  Level Los Angeles Center
16:20 35.6531 -114.7100 305° West 493 567 40,000  Level Los Angeles Center
16:21 35.7344 -114.8489 306° West 498 573 40,000  Level Los Angeles Center
16:22 35.8128 -114.9856 305° West 492 566 40,000  Level Los Angeles Center
16:23 35.8919 -115.1231 305° West 490 564 40,000  Level Los Angeles Center
16:24 35.9869 -115.2889 305° West 491 565 40,000  Level Los Angeles Center
16:25 36.0667 -115.4281 305° West 493 567 40,000  Level Los Angeles Center
16:26 36.1461 -115.5686 305° West 494 568 40,000  Level Los Angeles Center
16:27 36.2231 -115.7133 303° West 491 565 40,000  Level Los Angeles Center
16:28 36.2636 -115.8742 287° West 480 552 40,000  Level Los Angeles Center
16:29 36.3014 -116.0317 287° West 482 555 40,000  Level Los Angeles Center
16:30 36.3383 -116.1903 286° West 479 551 40,000  Level Los Angeles Center
16:31 36.3764 -116.3561 286° West 479 551 40,000  Level Los Angeles Center
16:33 36.4119 -116.5156 286° West 481 554 40,000  Level Los Angeles Center
16:34 36.4481 -116.6736 286° West 479 551 40,000  Level Los Angeles Center
16:35 36.4831 -116.8308 286° West 475 547 40,000  Level Los Angeles Center
16:36 36.5186 -116.9883 286° West 476 548 40,000  Level Los Angeles Center
16:37 36.5606 -117.1794 285° West 478 550 40,000  Level Los Angeles Center
16:38 36.5953 -117.3367 285° West 477 549 40,000  Level Los Angeles Center
16:39 36.6300 -117.4950 285° West 476 548 40,000  Level Los Angeles Center
16:40 36.6639 -117.6547 285° West 477 549 40,000  Level Los Angeles Center
16:41 36.6983 -117.8142 285° West 478 550 40,000  Level Los Angeles Center
16:42 36.7328 -117.9753 285° West 480 552 40,000  Level Los Angeles Center
16:43 36.7681 -118.1372 285° West 483 556 40,000  Level Los Angeles Center
16:44 36.8108 -118.3400 285° West 487 560 40,000  Level Los Angeles Center
16:45 36.8444 -118.5031 284° West 486 559 40,000  Level Los Angeles Center
16:46 36.8786 -118.6692 284° West 491 565 40,000 -600 Level Los Angeles Center
16:47 36.9094 -118.8250 284° West 482 555 38,900 -1,620 Descending Oakland Center
16:48 36.9431 -118.9844 285° West 477 549 36,800 -2,040 Descending Oakland Center
16:49 36.9747 -119.1450 284° West 478 550 34,800 -2,160 Descending Oakland Center
16:50 37.0078 -119.3086 284° West 487 560 32,500 -2,400 Descending Oakland Center
16:51 37.0397 -119.4711 284° West 483 556 30,000 -2,460 Descending Oakland Center
16:52 37.0711 -119.6319 284° West 478 550 27,500 -2,460 Descending Oakland Center
16:53 37.1011 -119.7856 284° West 459 528 25,000 -2,640 Descending Oakland Center
16:54 37.1361 -119.9628 284° West 460 529 22,200 -2,460 Descending Oakland Center
16:55 37.1642 -120.1131 283° West 446 513 20,000 -1,800 Descending Oakland Center
16:56 37.1944 -120.2658 284° West 449 517 18,600 -1,740 Descending Oakland Center
16:57 37.2139 -120.4119 280° West 426 490 16,500 -2,280 Descending Oakland Center
16:58 37.1833 -120.5667 256° West 432 497 14,100 -2,280 Descending Northern Cal TRACON
16:59 37.1667 -120.6833 260° West 382 440 12,200 -1,680 Descending Northern Cal TRACON
17:00 37.1333 -120.8167 253° West 385 443 11,000 -960 Descending Northern Cal TRACON
17:01 37.1000 -120.9333 250° West 375 432 10,300 -540 Descending Northern Cal TRACON
17:02 37.0833 -121.0667 261° West 385 443 10,000 -240 Descending Northern Cal TRACON
17:03 37.0500 -121.2000 253° West 381 438 9,900 -60 Descending Northern Cal TRACON
17:04 37.0167 -121.3000 247° West 362 417 9,900 -420 Level Northern Cal TRACON
17:05 37.0000 -121.4000 258° West 294 338 9,200 -1,020 Descending Northern Cal TRACON
17:06 36.9833 -121.4833 256° West 271 312 8,000 -1,440 Descending Northern Cal TRACON
17:07 37.0000 -121.5833 282° West 285 328 6,300 -1,080 Descending Northern Cal TRACON
17:08 37.0333 -121.6667 297° West 274 315 5,900 -660 Descending Northern Cal TRACON
17:09 37.0667 -121.7500 297° West 274 315 5,100 -420 Descending Northern Cal TRACON
17:10 37.1167 -121.8333 307° West 278 320 5,100 -60 Level Northern Cal TRACON
17:11 37.1500 -121.8833 310° West 279 321 5,000 -120 Descending Northern Cal TRACON
17:11 37.1886 -121.9094 332° Northwest 274 315 5,000  Level Oakland Center
17:12 37.2531 -121.9492 334° Northwest 263 303 5,000 -540 Level Oakland Center
17:13 37.3106 -121.9956 327° Northwest 251 289 4,000 -1,320 Descending Oakland Center
17:14 37.3600 -122.0417 323° Northwest 233 268 2,400 -840 Descending Oakland Center
17:15 37.4103 -122.0631 341° North 215 247 2,400 -60 Level Oakland Center
17:16 37.4311 -122.0100 64° Northeast 193 222 2,300 -780 Descending Oakland Center
17:17 37.4067 -121.9764 132° Southeast 153 176 900 -1,080 Descending Oakland Center
17:18 37.3803 -121.9478 139° Southeast 133 153 200 -720 Descending Oakland Center